sensor_id;sensor_type;location;lat;lon;timestamp;P1;durP1;ratioP1;P2;durP2;ratioP2
34236;SDS011;20501;45.956;13.632;2023-12-20T00:00:12;40.45;;;19.92;;
34236;SDS011;20501;45.956;13.632;2023-12-20T00:02:38;37.13;;;19.02;;
34236;SDS011;20501;45.956;13.632;2023-12-20T00:05:03;35.92;;;17.45;;
34236;SDS011;20501;45.956;13.632;2023-12-20T00:07:29;39.88;;;18.10;;
34236;SDS011;20501;45.956;13.632;2023-12-20T00:09:54;39.35;;;17.58;;
34236;SDS011;20501;45.956;13.632;2023-12-20T00:12:20;41.60;;;18.52;;
34236;SDS011;20501;45.956;13.632;2023-12-20T00:14:45;38.28;;;17.63;;
34236;SDS011;20501;45.956;13.632;2023-12-20T00:17:11;36.50;;;17.23;;
34236;SDS011;20501;45.956;13.632;2023-12-20T00:19:36;25.70;;;12.70;;
34236;SDS011;20501;45.956;13.632;2023-12-20T00:22:02;31.42;;;14.32;;
34236;SDS011;20501;45.956;13.632;2023-12-20T00:24:27;27.65;;;12.00;;
34236;SDS011;20501;45.956;13.632;2023-12-20T00:26:53;22.42;;;10.50;;
34236;SDS011;20501;45.956;13.632;2023-12-20T00:29:18;19.67;;;9.20;;
34236;SDS011;20501;45.956;13.632;2023-12-20T00:31:43;15.52;;;8.10;;
34236;SDS011;20501;45.956;13.632;2023-12-20T00:34:09;11.77;;;6.28;;
34236;SDS011;20501;45.956;13.632;2023-12-20T00:36:35;12.52;;;6.40;;
34236;SDS011;20501;45.956;13.632;2023-12-20T00:39:00;17.05;;;7.97;;
34236;SDS011;20501;45.956;13.632;2023-12-20T00:41:26;15.20;;;8.35;;
34236;SDS011;20501;45.956;13.632;2023-12-20T00:43:51;21.75;;;10.38;;
34236;SDS011;20501;45.956;13.632;2023-12-20T00:46:17;22.00;;;11.65;;
34236;SDS011;20501;45.956;13.632;2023-12-20T00:48:42;26.92;;;13.07;;
34236;SDS011;20501;45.956;13.632;2023-12-20T00:51:08;20.85;;;12.05;;
34236;SDS011;20501;45.956;13.632;2023-12-20T00:53:34;11.93;;;6.47;;
34236;SDS011;20501;45.956;13.632;2023-12-20T00:55:59;16.13;;;6.85;;
34236;SDS011;20501;45.956;13.632;2023-12-20T00:58:25;11.32;;;5.55;;
34236;SDS011;20501;45.956;13.632;2023-12-20T01:00:51;12.00;;;6.10;;
34236;SDS011;20501;45.956;13.632;2023-12-20T01:03:17;12.70;;;6.53;;
34236;SDS011;20501;45.956;13.632;2023-12-20T01:05:42;10.95;;;6.30;;
34236;SDS011;20501;45.956;13.632;2023-12-20T01:08:07;11.00;;;6.25;;
34236;SDS011;20501;45.956;13.632;2023-12-20T01:10:33;11.15;;;5.65;;
34236;SDS011;20501;45.956;13.632;2023-12-20T01:12:58;11.65;;;6.00;;
34236;SDS011;20501;45.956;13.632;2023-12-20T01:15:24;11.73;;;5.53;;
34236;SDS011;20501;45.956;13.632;2023-12-20T01:17:49;11.70;;;5.60;;
34236;SDS011;20501;45.956;13.632;2023-12-20T01:20:15;12.90;;;4.90;;
34236;SDS011;20501;45.956;13.632;2023-12-20T01:22:40;8.02;;;4.70;;
34236;SDS011;20501;45.956;13.632;2023-12-20T01:25:07;9.10;;;4.72;;
34236;SDS011;20501;45.956;13.632;2023-12-20T01:27:33;8.30;;;4.88;;
34236;SDS011;20501;45.956;13.632;2023-12-20T01:29:58;10.43;;;5.10;;
34236;SDS011;20501;45.956;13.632;2023-12-20T01:32:24;9.23;;;4.68;;
34236;SDS011;20501;45.956;13.632;2023-12-20T01:34:49;8.90;;;5.07;;
34236;SDS011;20501;45.956;13.632;2023-12-20T01:37:15;11.38;;;5.85;;
34236;SDS011;20501;45.956;13.632;2023-12-20T01:39:40;9.45;;;4.97;;
34236;SDS011;20501;45.956;13.632;2023-12-20T01:42:05;10.80;;;5.13;;
34236;SDS011;20501;45.956;13.632;2023-12-20T01:44:31;10.88;;;5.65;;
34236;SDS011;20501;45.956;13.632;2023-12-20T01:46:56;12.68;;;5.80;;
34236;SDS011;20501;45.956;13.632;2023-12-20T01:49:22;10.15;;;5.90;;
34236;SDS011;20501;45.956;13.632;2023-12-20T01:51:48;11.38;;;5.53;;
34236;SDS011;20501;45.956;13.632;2023-12-20T01:54:15;10.90;;;5.47;;
34236;SDS011;20501;45.956;13.632;2023-12-20T01:56:41;10.98;;;5.95;;
34236;SDS011;20501;45.956;13.632;2023-12-20T01:59:07;10.82;;;6.03;;
34236;SDS011;20501;45.956;13.632;2023-12-20T02:01:34;7.95;;;5.18;;
34236;SDS011;20501;45.956;13.632;2023-12-20T02:04:00;10.65;;;5.82;;
34236;SDS011;20501;45.956;13.632;2023-12-20T02:06:29;10.75;;;5.90;;
34236;SDS011;20501;45.956;13.632;2023-12-20T02:08:58;10.57;;;5.68;;
34236;SDS011;20501;45.956;13.632;2023-12-20T02:11:24;11.43;;;6.07;;
34236;SDS011;20501;45.956;13.632;2023-12-20T02:13:50;11.48;;;5.80;;
34236;SDS011;20501;45.956;13.632;2023-12-20T02:16:16;17.10;;;6.40;;
34236;SDS011;20501;45.956;13.632;2023-12-20T02:18:42;14.93;;;6.20;;
34236;SDS011;20501;45.956;13.632;2023-12-20T02:21:09;19.90;;;6.60;;
34236;SDS011;20501;45.956;13.632;2023-12-20T02:23:35;16.60;;;6.22;;
34236;SDS011;20501;45.956;13.632;2023-12-20T02:26:00;14.35;;;6.10;;
34236;SDS011;20501;45.956;13.632;2023-12-20T02:28:26;14.30;;;5.97;;
34236;SDS011;20501;45.956;13.632;2023-12-20T02:30:51;11.18;;;5.43;;
34236;SDS011;20501;45.956;13.632;2023-12-20T02:33:17;14.13;;;6.25;;
34236;SDS011;20501;45.956;13.632;2023-12-20T02:35:42;14.38;;;5.53;;
34236;SDS011;20501;45.956;13.632;2023-12-20T02:38:08;16.05;;;6.32;;
34236;SDS011;20501;45.956;13.632;2023-12-20T02:40:33;13.25;;;5.63;;
34236;SDS011;20501;45.956;13.632;2023-12-20T02:42:58;14.02;;;5.65;;
34236;SDS011;20501;45.956;13.632;2023-12-20T02:45:24;17.83;;;6.40;;
34236;SDS011;20501;45.956;13.632;2023-12-20T02:47:50;16.15;;;7.43;;
34236;SDS011;20501;45.956;13.632;2023-12-20T02:50:15;17.98;;;6.45;;
34236;SDS011;20501;45.956;13.632;2023-12-20T02:52:44;16.63;;;6.30;;
34236;SDS011;20501;45.956;13.632;2023-12-20T02:55:10;18.40;;;6.40;;
34236;SDS011;20501;45.956;13.632;2023-12-20T02:57:35;10.43;;;4.88;;
34236;SDS011;20501;45.956;13.632;2023-12-20T03:00:01;11.40;;;5.55;;
34236;SDS011;20501;45.956;13.632;2023-12-20T03:02:27;9.88;;;4.85;;
34236;SDS011;20501;45.956;13.632;2023-12-20T03:04:52;13.38;;;4.90;;
34236;SDS011;20501;45.956;13.632;2023-12-20T03:07:18;13.63;;;4.60;;
34236;SDS011;20501;45.956;13.632;2023-12-20T03:09:43;11.73;;;5.65;;
34236;SDS011;20501;45.956;13.632;2023-12-20T03:12:08;12.70;;;6.05;;
34236;SDS011;20501;45.956;13.632;2023-12-20T03:14:34;13.20;;;5.20;;
34236;SDS011;20501;45.956;13.632;2023-12-20T03:16:59;13.05;;;5.57;;
34236;SDS011;20501;45.956;13.632;2023-12-20T03:19:25;12.10;;;4.88;;
34236;SDS011;20501;45.956;13.632;2023-12-20T03:21:50;9.35;;;4.82;;
34236;SDS011;20501;45.956;13.632;2023-12-20T03:24:18;15.43;;;7.15;;
34236;SDS011;20501;45.956;13.632;2023-12-20T03:26:43;15.35;;;8.48;;
34236;SDS011;20501;45.956;13.632;2023-12-20T03:29:08;16.90;;;8.32;;
34236;SDS011;20501;45.956;13.632;2023-12-20T03:31:34;16.33;;;7.93;;
34236;SDS011;20501;45.956;13.632;2023-12-20T03:33:59;12.15;;;6.85;;
34236;SDS011;20501;45.956;13.632;2023-12-20T03:36:25;11.68;;;6.63;;
34236;SDS011;20501;45.956;13.632;2023-12-20T03:38:50;11.60;;;5.45;;
34236;SDS011;20501;45.956;13.632;2023-12-20T03:41:15;13.05;;;5.25;;
34236;SDS011;20501;45.956;13.632;2023-12-20T03:43:41;15.98;;;5.60;;
34236;SDS011;20501;45.956;13.632;2023-12-20T03:46:08;10.60;;;5.63;;
34236;SDS011;20501;45.956;13.632;2023-12-20T03:50:59;11.30;;;5.15;;
34236;SDS011;20501;45.956;13.632;2023-12-20T03:53:24;11.93;;;6.00;;
34236;SDS011;20501;45.956;13.632;2023-12-20T03:55:49;12.23;;;5.82;;
34236;SDS011;20501;45.956;13.632;2023-12-20T03:58:15;22.63;;;5.90;;
34236;SDS011;20501;45.956;13.632;2023-12-20T04:00:40;14.25;;;6.63;;
34236;SDS011;20501;45.956;13.632;2023-12-20T04:03:06;8.13;;;5.40;;
34236;SDS011;20501;45.956;13.632;2023-12-20T04:05:32;14.90;;;5.93;;
34236;SDS011;20501;45.956;13.632;2023-12-20T04:07:57;11.02;;;5.45;;
34236;SDS011;20501;45.956;13.632;2023-12-20T04:10:23;12.98;;;5.93;;
34236;SDS011;20501;45.956;13.632;2023-12-20T04:12:48;15.52;;;7.38;;
34236;SDS011;20501;45.956;13.632;2023-12-20T04:15:14;13.05;;;7.40;;
34236;SDS011;20501;45.956;13.632;2023-12-20T04:17:39;14.77;;;6.72;;
34236;SDS011;20501;45.956;13.632;2023-12-20T04:20:05;16.75;;;5.95;;
34236;SDS011;20501;45.956;13.632;2023-12-20T04:22:31;10.27;;;5.27;;
34236;SDS011;20501;45.956;13.632;2023-12-20T04:24:56;9.63;;;5.18;;
34236;SDS011;20501;45.956;13.632;2023-12-20T04:27:21;14.18;;;5.95;;
34236;SDS011;20501;45.956;13.632;2023-12-20T04:29:47;12.27;;;6.22;;
34236;SDS011;20501;45.956;13.632;2023-12-20T04:32:12;14.45;;;5.85;;
34236;SDS011;20501;45.956;13.632;2023-12-20T04:34:38;14.85;;;5.45;;
34236;SDS011;20501;45.956;13.632;2023-12-20T04:37:03;13.75;;;5.97;;
34236;SDS011;20501;45.956;13.632;2023-12-20T04:39:29;43.22;;;11.15;;
34236;SDS011;20501;45.956;13.632;2023-12-20T04:41:54;31.67;;;10.63;;
34236;SDS011;20501;45.956;13.632;2023-12-20T04:44:20;37.75;;;11.70;;
34236;SDS011;20501;45.956;13.632;2023-12-20T04:46:45;24.25;;;9.30;;
34236;SDS011;20501;45.956;13.632;2023-12-20T04:49:11;19.38;;;7.28;;
34236;SDS011;20501;45.956;13.632;2023-12-20T04:51:36;16.48;;;7.18;;
34236;SDS011;20501;45.956;13.632;2023-12-20T04:54:03;21.55;;;9.15;;
34236;SDS011;20501;45.956;13.632;2023-12-20T04:56:28;20.48;;;7.43;;
34236;SDS011;20501;45.956;13.632;2023-12-20T04:58:54;13.20;;;5.85;;
34236;SDS011;20501;45.956;13.632;2023-12-20T05:01:19;18.15;;;7.50;;
34236;SDS011;20501;45.956;13.632;2023-12-20T05:03:45;19.48;;;10.60;;
34236;SDS011;20501;45.956;13.632;2023-12-20T05:06:11;28.63;;;11.93;;
34236;SDS011;20501;45.956;13.632;2023-12-20T05:08:36;17.10;;;10.38;;
34236;SDS011;20501;45.956;13.632;2023-12-20T05:11:02;24.42;;;10.20;;
34236;SDS011;20501;45.956;13.632;2023-12-20T05:13:28;14.63;;;8.52;;
34236;SDS011;20501;45.956;13.632;2023-12-20T05:15:53;13.07;;;6.75;;
34236;SDS011;20501;45.956;13.632;2023-12-20T05:18:20;14.82;;;6.40;;
34236;SDS011;20501;45.956;13.632;2023-12-20T05:20:45;15.73;;;5.80;;
34236;SDS011;20501;45.956;13.632;2023-12-20T05:23:11;12.93;;;5.88;;
34236;SDS011;20501;45.956;13.632;2023-12-20T05:25:38;15.40;;;6.22;;
34236;SDS011;20501;45.956;13.632;2023-12-20T05:28:04;13.10;;;5.30;;
34236;SDS011;20501;45.956;13.632;2023-12-20T05:30:29;15.48;;;6.25;;
34236;SDS011;20501;45.956;13.632;2023-12-20T05:32:55;11.65;;;5.38;;
34236;SDS011;20501;45.956;13.632;2023-12-20T05:35:20;16.48;;;6.07;;
34236;SDS011;20501;45.956;13.632;2023-12-20T05:37:47;12.68;;;5.43;;
34236;SDS011;20501;45.956;13.632;2023-12-20T05:40:12;11.32;;;5.68;;
34236;SDS011;20501;45.956;13.632;2023-12-20T05:42:38;15.57;;;6.10;;
34236;SDS011;20501;45.956;13.632;2023-12-20T05:45:04;16.45;;;6.93;;
34236;SDS011;20501;45.956;13.632;2023-12-20T05:47:30;15.55;;;6.18;;
34236;SDS011;20501;45.956;13.632;2023-12-20T05:49:55;14.32;;;6.05;;
34236;SDS011;20501;45.956;13.632;2023-12-20T05:52:21;11.13;;;6.55;;
34236;SDS011;20501;45.956;13.632;2023-12-20T05:54:47;16.20;;;6.05;;
34236;SDS011;20501;45.956;13.632;2023-12-20T05:57:12;15.50;;;6.28;;
34236;SDS011;20501;45.956;13.632;2023-12-20T05:59:38;17.45;;;7.53;;
34236;SDS011;20501;45.956;13.632;2023-12-20T06:02:03;17.98;;;6.55;;
34236;SDS011;20501;45.956;13.632;2023-12-20T06:04:29;16.77;;;5.55;;
34236;SDS011;20501;45.956;13.632;2023-12-20T06:06:55;12.32;;;5.60;;
34236;SDS011;20501;45.956;13.632;2023-12-20T06:09:20;12.50;;;4.75;;
34236;SDS011;20501;45.956;13.632;2023-12-20T06:11:46;9.55;;;5.20;;
34236;SDS011;20501;45.956;13.632;2023-12-20T06:14:11;12.45;;;5.20;;
34236;SDS011;20501;45.956;13.632;2023-12-20T06:16:37;15.98;;;5.00;;
34236;SDS011;20501;45.956;13.632;2023-12-20T06:19:02;15.65;;;5.07;;
34236;SDS011;20501;45.956;13.632;2023-12-20T06:21:28;12.50;;;5.55;;
34236;SDS011;20501;45.956;13.632;2023-12-20T06:23:53;12.75;;;6.10;;
34236;SDS011;20501;45.956;13.632;2023-12-20T06:26:20;17.10;;;6.95;;
34236;SDS011;20501;45.956;13.632;2023-12-20T06:28:45;18.48;;;7.40;;
34236;SDS011;20501;45.956;13.632;2023-12-20T06:31:11;16.45;;;6.63;;
34236;SDS011;20501;45.956;13.632;2023-12-20T06:33:36;22.33;;;8.90;;
34236;SDS011;20501;45.956;13.632;2023-12-20T06:36:01;14.13;;;7.10;;
34236;SDS011;20501;45.956;13.632;2023-12-20T06:38:27;11.15;;;5.63;;
34236;SDS011;20501;45.956;13.632;2023-12-20T06:40:53;20.02;;;6.65;;
34236;SDS011;20501;45.956;13.632;2023-12-20T06:43:18;14.25;;;6.25;;
34236;SDS011;20501;45.956;13.632;2023-12-20T06:45:44;17.13;;;6.28;;
34236;SDS011;20501;45.956;13.632;2023-12-20T06:48:09;11.40;;;5.22;;
34236;SDS011;20501;45.956;13.632;2023-12-20T06:50:37;15.48;;;5.53;;
34236;SDS011;20501;45.956;13.632;2023-12-20T06:53:05;15.52;;;6.80;;
34236;SDS011;20501;45.956;13.632;2023-12-20T06:57:57;18.73;;;6.18;;
34236;SDS011;20501;45.956;13.632;2023-12-20T07:00:23;12.98;;;6.05;;
34236;SDS011;20501;45.956;13.632;2023-12-20T07:02:48;15.68;;;6.45;;
34236;SDS011;20501;45.956;13.632;2023-12-20T07:05:16;18.33;;;7.75;;
34236;SDS011;20501;45.956;13.632;2023-12-20T07:07:42;18.77;;;6.72;;
34236;SDS011;20501;45.956;13.632;2023-12-20T07:10:07;17.17;;;7.65;;
34236;SDS011;20501;45.956;13.632;2023-12-20T07:12:33;17.00;;;6.82;;
34236;SDS011;20501;45.956;13.632;2023-12-20T07:14:58;14.38;;;7.30;;
34236;SDS011;20501;45.956;13.632;2023-12-20T07:17:24;15.65;;;6.60;;
34236;SDS011;20501;45.956;13.632;2023-12-20T07:19:50;31.73;;;8.25;;
34236;SDS011;20501;45.956;13.632;2023-12-20T07:22:15;15.23;;;7.22;;
34236;SDS011;20501;45.956;13.632;2023-12-20T07:24:40;13.45;;;6.38;;
34236;SDS011;20501;45.956;13.632;2023-12-20T07:27:06;18.27;;;5.75;;
34236;SDS011;20501;45.956;13.632;2023-12-20T07:29:31;18.70;;;5.85;;
34236;SDS011;20501;45.956;13.632;2023-12-20T07:31:57;14.43;;;5.82;;
34236;SDS011;20501;45.956;13.632;2023-12-20T07:34:22;13.85;;;6.15;;
34236;SDS011;20501;45.956;13.632;2023-12-20T07:36:47;13.85;;;5.72;;
34236;SDS011;20501;45.956;13.632;2023-12-20T07:39:13;15.88;;;6.50;;
34236;SDS011;20501;45.956;13.632;2023-12-20T07:41:39;11.67;;;5.93;;
34236;SDS011;20501;45.956;13.632;2023-12-20T07:44:04;14.38;;;6.03;;
34236;SDS011;20501;45.956;13.632;2023-12-20T07:46:30;20.45;;;6.22;;
34236;SDS011;20501;45.956;13.632;2023-12-20T07:48:56;13.15;;;5.43;;
34236;SDS011;20501;45.956;13.632;2023-12-20T07:51:21;10.15;;;5.15;;
34236;SDS011;20501;45.956;13.632;2023-12-20T07:53:47;15.43;;;5.82;;
34236;SDS011;20501;45.956;13.632;2023-12-20T07:58:44;12.63;;;6.25;;
34236;SDS011;20501;45.956;13.632;2023-12-20T08:01:10;13.20;;;5.82;;
34236;SDS011;20501;45.956;13.632;2023-12-20T08:03:36;15.75;;;7.47;;
34236;SDS011;20501;45.956;13.632;2023-12-20T08:06:01;15.77;;;7.10;;
34236;SDS011;20501;45.956;13.632;2023-12-20T08:08:27;20.35;;;7.28;;
34236;SDS011;20501;45.956;13.632;2023-12-20T08:10:53;17.35;;;7.03;;
34236;SDS011;20501;45.956;13.632;2023-12-20T08:13:18;16.70;;;6.78;;
34236;SDS011;20501;45.956;13.632;2023-12-20T08:15:44;18.55;;;7.28;;
34236;SDS011;20501;45.956;13.632;2023-12-20T08:18:09;14.70;;;6.97;;
34236;SDS011;20501;45.956;13.632;2023-12-20T08:20:34;23.73;;;8.13;;
34236;SDS011;20501;45.956;13.632;2023-12-20T08:23:00;14.50;;;6.72;;
34236;SDS011;20501;45.956;13.632;2023-12-20T08:25:25;13.65;;;5.97;;
34236;SDS011;20501;45.956;13.632;2023-12-20T08:27:52;18.65;;;8.50;;
34236;SDS011;20501;45.956;13.632;2023-12-20T08:30:18;19.48;;;9.00;;
34236;SDS011;20501;45.956;13.632;2023-12-20T08:32:46;16.13;;;7.75;;
34236;SDS011;20501;45.956;13.632;2023-12-20T08:35:15;16.67;;;8.05;;
34236;SDS011;20501;45.956;13.632;2023-12-20T08:37:40;22.60;;;8.73;;
34236;SDS011;20501;45.956;13.632;2023-12-20T08:40:06;17.83;;;7.63;;
34236;SDS011;20501;45.956;13.632;2023-12-20T08:42:31;28.65;;;7.65;;
34236;SDS011;20501;45.956;13.632;2023-12-20T08:44:57;16.92;;;7.35;;
34236;SDS011;20501;45.956;13.632;2023-12-20T08:47:23;19.55;;;7.45;;
34236;SDS011;20501;45.956;13.632;2023-12-20T08:49:49;20.35;;;9.02;;
34236;SDS011;20501;45.956;13.632;2023-12-20T08:52:15;17.08;;;8.15;;
34236;SDS011;20501;45.956;13.632;2023-12-20T08:54:40;20.33;;;8.07;;
34236;SDS011;20501;45.956;13.632;2023-12-20T08:57:06;17.80;;;8.93;;
34236;SDS011;20501;45.956;13.632;2023-12-20T08:59:32;20.33;;;9.02;;
34236;SDS011;20501;45.956;13.632;2023-12-20T09:01:57;24.48;;;9.95;;
34236;SDS011;20501;45.956;13.632;2023-12-20T09:04:23;22.20;;;10.07;;
34236;SDS011;20501;45.956;13.632;2023-12-20T09:06:48;26.50;;;11.75;;
34236;SDS011;20501;45.956;13.632;2023-12-20T09:09:14;20.42;;;10.35;;
34236;SDS011;20501;45.956;13.632;2023-12-20T09:11:39;17.48;;;8.48;;
34236;SDS011;20501;45.956;13.632;2023-12-20T09:14:05;21.45;;;8.30;;
34236;SDS011;20501;45.956;13.632;2023-12-20T09:16:31;16.98;;;8.80;;
34236;SDS011;20501;45.956;13.632;2023-12-20T09:18:56;23.80;;;9.10;;
34236;SDS011;20501;45.956;13.632;2023-12-20T09:21:22;20.27;;;9.23;;
34236;SDS011;20501;45.956;13.632;2023-12-20T09:23:48;19.15;;;8.75;;
34236;SDS011;20501;45.956;13.632;2023-12-20T09:26:14;17.67;;;8.07;;
34236;SDS011;20501;45.956;13.632;2023-12-20T09:28:39;17.08;;;8.35;;
34236;SDS011;20501;45.956;13.632;2023-12-20T09:31:05;15.00;;;7.95;;
34236;SDS011;20501;45.956;13.632;2023-12-20T09:33:31;24.33;;;9.30;;
34236;SDS011;20501;45.956;13.632;2023-12-20T09:35:57;31.77;;;9.35;;
34236;SDS011;20501;45.956;13.632;2023-12-20T09:38:23;26.15;;;9.45;;
34236;SDS011;20501;45.956;13.632;2023-12-20T09:40:48;21.92;;;10.40;;
34236;SDS011;20501;45.956;13.632;2023-12-20T09:43:14;20.80;;;9.25;;
34236;SDS011;20501;45.956;13.632;2023-12-20T09:45:41;24.13;;;10.18;;
34236;SDS011;20501;45.956;13.632;2023-12-20T09:48:11;20.58;;;9.05;;
34236;SDS011;20501;45.956;13.632;2023-12-20T09:50:37;21.90;;;9.80;;
34236;SDS011;20501;45.956;13.632;2023-12-20T09:53:02;27.52;;;10.43;;
34236;SDS011;20501;45.956;13.632;2023-12-20T09:55:34;22.52;;;10.40;;
34236;SDS011;20501;45.956;13.632;2023-12-20T09:58:04;22.42;;;12.43;;
34236;SDS011;20501;45.956;13.632;2023-12-20T10:00:31;23.33;;;12.50;;
34236;SDS011;20501;45.956;13.632;2023-12-20T10:02:57;41.40;;;14.38;;
34236;SDS011;20501;45.956;13.632;2023-12-20T10:07:53;31.67;;;11.85;;
34236;SDS011;20501;45.956;13.632;2023-12-20T10:10:18;20.33;;;11.57;;
34236;SDS011;20501;45.956;13.632;2023-12-20T10:15:28;22.85;;;11.77;;
34236;SDS011;20501;45.956;13.632;2023-12-20T10:17:53;23.13;;;11.82;;
34236;SDS011;20501;45.956;13.632;2023-12-20T10:20:19;21.48;;;9.98;;
34236;SDS011;20501;45.956;13.632;2023-12-20T10:22:45;25.05;;;11.35;;
34236;SDS011;20501;45.956;13.632;2023-12-20T10:25:11;26.70;;;11.00;;
34236;SDS011;20501;45.956;13.632;2023-12-20T10:27:37;30.98;;;12.35;;
34236;SDS011;20501;45.956;13.632;2023-12-20T10:30:02;25.50;;;13.25;;
34236;SDS011;20501;45.956;13.632;2023-12-20T10:32:28;23.75;;;12.00;;
34236;SDS011;20501;45.956;13.632;2023-12-20T10:34:55;25.75;;;13.02;;
34236;SDS011;20501;45.956;13.632;2023-12-20T10:37:21;20.60;;;11.40;;
34236;SDS011;20501;45.956;13.632;2023-12-20T10:39:50;23.40;;;10.10;;
34236;SDS011;20501;45.956;13.632;2023-12-20T10:42:17;22.40;;;9.40;;
34236;SDS011;20501;45.956;13.632;2023-12-20T10:44:46;16.48;;;10.13;;
34236;SDS011;20501;45.956;13.632;2023-12-20T10:47:13;22.90;;;10.07;;
34236;SDS011;20501;45.956;13.632;2023-12-20T10:49:38;19.48;;;10.30;;
34236;SDS011;20501;45.956;13.632;2023-12-20T10:52:05;21.48;;;10.00;;
34236;SDS011;20501;45.956;13.632;2023-12-20T10:54:31;24.92;;;10.93;;
34236;SDS011;20501;45.956;13.632;2023-12-20T10:56:58;18.65;;;10.85;;
34236;SDS011;20501;45.956;13.632;2023-12-20T10:59:24;23.98;;;11.65;;
34236;SDS011;20501;45.956;13.632;2023-12-20T11:01:52;20.88;;;10.88;;
34236;SDS011;20501;45.956;13.632;2023-12-20T11:04:25;18.88;;;9.68;;
34236;SDS011;20501;45.956;13.632;2023-12-20T11:07:01;21.50;;;10.27;;
34236;SDS011;20501;45.956;13.632;2023-12-20T11:09:55;24.40;;;10.95;;
34236;SDS011;20501;45.956;13.632;2023-12-20T11:15:13;21.48;;;10.05;;
34236;SDS011;20501;45.956;13.632;2023-12-20T11:17:40;19.08;;;9.80;;
34236;SDS011;20501;45.956;13.632;2023-12-20T11:20:06;20.38;;;9.73;;
34236;SDS011;20501;45.956;13.632;2023-12-20T11:22:35;20.80;;;9.80;;
34236;SDS011;20501;45.956;13.632;2023-12-20T11:25:04;24.45;;;11.07;;
34236;SDS011;20501;45.956;13.632;2023-12-20T11:27:33;28.05;;;13.50;;
34236;SDS011;20501;45.956;13.632;2023-12-20T11:29:59;38.33;;;16.05;;
34236;SDS011;20501;45.956;13.632;2023-12-20T11:32:28;28.73;;;14.02;;
34236;SDS011;20501;45.956;13.632;2023-12-20T11:34:54;25.75;;;13.23;;
34236;SDS011;20501;45.956;13.632;2023-12-20T11:37:30;25.98;;;12.60;;
34236;SDS011;20501;45.956;13.632;2023-12-20T11:42:32;31.58;;;14.52;;
34236;SDS011;20501;45.956;13.632;2023-12-20T11:44:59;28.38;;;12.50;;
34236;SDS011;20501;45.956;13.632;2023-12-20T11:47:24;25.83;;;11.20;;
34236;SDS011;20501;45.956;13.632;2023-12-20T11:49:50;21.23;;;10.20;;
34236;SDS011;20501;45.956;13.632;2023-12-20T11:52:16;28.83;;;10.67;;
34236;SDS011;20501;45.956;13.632;2023-12-20T11:54:42;18.30;;;10.02;;
34236;SDS011;20501;45.956;13.632;2023-12-20T11:57:07;18.88;;;9.73;;
34236;SDS011;20501;45.956;13.632;2023-12-20T11:59:33;18.98;;;9.60;;
34236;SDS011;20501;45.956;13.632;2023-12-20T12:01:58;22.27;;;10.48;;
34236;SDS011;20501;45.956;13.632;2023-12-20T12:04:26;21.20;;;10.27;;
34236;SDS011;20501;45.956;13.632;2023-12-20T12:06:52;23.52;;;11.35;;
34236;SDS011;20501;45.956;13.632;2023-12-20T12:09:17;20.23;;;11.32;;
34236;SDS011;20501;45.956;13.632;2023-12-20T12:11:43;23.42;;;11.38;;
34236;SDS011;20501;45.956;13.632;2023-12-20T12:14:08;28.52;;;12.02;;
34236;SDS011;20501;45.956;13.632;2023-12-20T12:16:34;24.35;;;13.10;;
34236;SDS011;20501;45.956;13.632;2023-12-20T12:19:00;42.85;;;13.52;;
34236;SDS011;20501;45.956;13.632;2023-12-20T12:21:26;30.88;;;12.40;;
34236;SDS011;20501;45.956;13.632;2023-12-20T12:23:51;24.15;;;11.23;;
34236;SDS011;20501;45.956;13.632;2023-12-20T12:26:18;29.75;;;12.48;;
34236;SDS011;20501;45.956;13.632;2023-12-20T12:28:44;23.88;;;11.25;;
34236;SDS011;20501;45.956;13.632;2023-12-20T12:31:18;23.45;;;11.70;;
34236;SDS011;20501;45.956;13.632;2023-12-20T12:33:43;23.20;;;11.05;;
34236;SDS011;20501;45.956;13.632;2023-12-20T12:36:09;23.25;;;11.25;;
34236;SDS011;20501;45.956;13.632;2023-12-20T12:41:01;18.77;;;10.35;;
34236;SDS011;20501;45.956;13.632;2023-12-20T12:43:27;24.33;;;12.02;;
34236;SDS011;20501;45.956;13.632;2023-12-20T12:45:52;25.15;;;11.98;;
34236;SDS011;20501;45.956;13.632;2023-12-20T12:48:18;25.07;;;13.10;;
34236;SDS011;20501;45.956;13.632;2023-12-20T12:50:45;27.02;;;12.75;;
34236;SDS011;20501;45.956;13.632;2023-12-20T12:53:11;26.48;;;12.48;;
34236;SDS011;20501;45.956;13.632;2023-12-20T12:55:36;28.88;;;13.02;;
34236;SDS011;20501;45.956;13.632;2023-12-20T12:58:01;28.23;;;14.90;;
34236;SDS011;20501;45.956;13.632;2023-12-20T13:00:27;30.10;;;13.73;;
34236;SDS011;20501;45.956;13.632;2023-12-20T13:02:52;30.40;;;14.70;;
34236;SDS011;20501;45.956;13.632;2023-12-20T13:05:18;30.38;;;13.50;;
34236;SDS011;20501;45.956;13.632;2023-12-20T13:07:43;25.95;;;12.38;;
34236;SDS011;20501;45.956;13.632;2023-12-20T13:10:10;28.83;;;12.88;;
34236;SDS011;20501;45.956;13.632;2023-12-20T13:12:36;27.10;;;11.93;;
34236;SDS011;20501;45.956;13.632;2023-12-20T13:15:01;34.20;;;12.75;;
34236;SDS011;20501;45.956;13.632;2023-12-20T13:17:28;21.08;;;12.20;;
34236;SDS011;20501;45.956;13.632;2023-12-20T13:19:54;28.55;;;13.57;;
34236;SDS011;20501;45.956;13.632;2023-12-20T13:22:20;21.05;;;11.63;;
34236;SDS011;20501;45.956;13.632;2023-12-20T13:24:45;22.05;;;12.40;;
34236;SDS011;20501;45.956;13.632;2023-12-20T13:27:11;25.73;;;14.02;;
34236;SDS011;20501;45.956;13.632;2023-12-20T13:29:36;27.42;;;13.10;;
34236;SDS011;20501;45.956;13.632;2023-12-20T13:32:01;29.65;;;12.85;;
34236;SDS011;20501;45.956;13.632;2023-12-20T13:34:28;25.38;;;12.82;;
34236;SDS011;20501;45.956;13.632;2023-12-20T13:36:54;22.33;;;11.00;;
34236;SDS011;20501;45.956;13.632;2023-12-20T13:39:19;19.67;;;9.85;;
34236;SDS011;20501;45.956;13.632;2023-12-20T13:41:46;18.38;;;9.95;;
34236;SDS011;20501;45.956;13.632;2023-12-20T13:44:12;25.80;;;10.87;;
34236;SDS011;20501;45.956;13.632;2023-12-20T13:46:38;24.63;;;11.63;;
34236;SDS011;20501;45.956;13.632;2023-12-20T13:49:03;25.88;;;10.52;;
34236;SDS011;20501;45.956;13.632;2023-12-20T13:51:30;23.25;;;12.57;;
34236;SDS011;20501;45.956;13.632;2023-12-20T13:53:55;17.30;;;9.60;;
34236;SDS011;20501;45.956;13.632;2023-12-20T13:56:21;16.50;;;9.93;;
34236;SDS011;20501;45.956;13.632;2023-12-20T13:58:48;31.00;;;12.65;;
34236;SDS011;20501;45.956;13.632;2023-12-20T14:01:13;93.43;;;26.85;;
34236;SDS011;20501;45.956;13.632;2023-12-20T14:03:39;130.27;;;32.55;;
34236;SDS011;20501;45.956;13.632;2023-12-20T14:06:04;108.88;;;31.88;;
34236;SDS011;20501;45.956;13.632;2023-12-20T14:08:30;57.08;;;20.73;;
34236;SDS011;20501;45.956;13.632;2023-12-20T14:10:55;47.58;;;18.88;;
34236;SDS011;20501;45.956;13.632;2023-12-20T14:13:21;41.25;;;17.75;;
34236;SDS011;20501;45.956;13.632;2023-12-20T14:15:46;46.55;;;18.27;;
34236;SDS011;20501;45.956;13.632;2023-12-20T14:18:14;35.33;;;16.75;;
34236;SDS011;20501;45.956;13.632;2023-12-20T14:20:40;33.35;;;15.95;;
34236;SDS011;20501;45.956;13.632;2023-12-20T14:23:08;30.85;;;14.48;;
34236;SDS011;20501;45.956;13.632;2023-12-20T14:25:37;27.05;;;13.85;;
34236;SDS011;20501;45.956;13.632;2023-12-20T14:28:03;25.88;;;13.82;;
34236;SDS011;20501;45.956;13.632;2023-12-20T14:30:29;26.83;;;13.32;;